Terminal Aerodrome Forecast
Issued by NWS

Home | Current Version | Previous Version | Text Only | Print | Product List | Glossary On
Versions: 1 2 3 4 5 6 7 8 9 10 11 12 13 14 15
110
FTUS46 KSEW 250307 AAA
TAFBFI
TAF AMD
KBFI 250307Z 2503/2524 VRB03KT P6SM SCT070
     FM252000 31008KT P6SM FEW050=

USA.gov is the U.S. government's official web portal to all federal, state and local government web resources and services.